UHMD 232130Z 20002MPS CAVOK 09/04 Q1017 RMK QFE762/1016
QNH:(hPa/inHg/mmHg)1017 / 30.03 / 763
QFE:(hPa/inHg/mmHg)1014 / 29.95 / 761
Temperature9
Dew Point4
Visibility> 10000
WeatherCAVOK
Cloud Cover
Transition Height1700 m./5700 ft.
Transition LevelFL70
SQUAWK